Time;durP1;ratioP1;P1;durP2;ratioP2;P2;SDS_P1;SDS_P2;PMS_P1;PMS_P2;Temp;Humidity;BMP_temperature;BMP_pressure;BME280_temperature;BME280_humidity;BME280_pressure;Samples;Min_cycle;Max_cycle;Signal;HPM_P1;HPM_P2
2021/08/05 00:01:50;;;;;;;23.90;22.00;;;;;;;;;;5115841;28;20436;-86
2021/08/05 00:04:17;;;;;;;25.30;23.53;;;;;;;;;;5115400;28;20446;-86
2021/08/05 00:06:45;;;;;;;24.60;23.23;;;;;;;;;;5115605;28;20522;-86
2021/08/05 00:09:12;;;;;;;24.57;22.67;;;;;;;;;;5115803;28;20442;-86
2021/08/05 00:11:40;;;;;;;25.53;24.10;;;;;;;;;;5115654;28;20491;-86
2021/08/05 00:14:07;;;;;;;25.80;24.40;;;;;;;;;;5115267;28;20417;-86
2021/08/05 00:16:35;;;;;;;25.03;23.33;;;;;;;;;;5115519;28;20477;-87
2021/08/05 00:19:04;;;;;;;25.00;23.60;;;;;;;;;;5115410;28;20433;-86
2021/08/05 00:21:31;;;;;;;23.83;22.33;;;;;;;;;;5115336;28;20413;-86
2021/08/05 00:23:59;;;;;;;24.03;22.73;;;;;;;;;;5115319;28;20813;-86
2021/08/05 00:26:26;;;;;;;23.83;22.23;;;;;;;;;;5115062;28;20434;-87
2021/08/05 00:28:53;;;;;;;23.43;22.00;;;;;;;;;;5115796;28;20800;-87
2021/08/05 00:31:21;;;;;;;23.47;21.97;;;;;;;;;;5115150;28;20448;-86
2021/08/05 00:33:48;;;;;;;23.90;22.50;;;;;;;;;;5115484;28;20420;-87
2021/08/05 00:36:17;;;;;;;23.33;22.03;;;;;;;;;;5115275;28;20430;-86
2021/08/05 00:38:45;;;;;;;23.40;21.90;;;;;;;;;;5115466;28;20418;-86
2021/08/05 00:41:12;;;;;;;23.83;22.13;;;;;;;;;;5115061;28;20461;-87
2021/08/05 00:43:40;;;;;;;25.90;23.63;;;;;;;;;;5114944;28;20442;-87
2021/08/05 00:46:07;;;;;;;25.10;23.67;;;;;;;;;;5114820;28;20465;-86
2021/08/05 00:48:35;;;;;;;24.40;22.90;;;;;;;;;;5115124;28;20486;-86
2021/08/05 00:51:02;;;;;;;23.57;22.20;;;;;;;;;;5114964;28;20437;-86
2021/08/05 00:53:31;;;;;;;23.70;22.40;;;;;;;;;;5114949;28;20450;-86
2021/08/05 00:55:58;;;;;;;23.53;22.23;;;;;;;;;;5114889;28;20428;-87
2021/08/05 00:58:26;;;;;;;23.10;21.70;;;;;;;;;;5114840;28;20487;-86
2021/08/05 01:00:55;;;;;;;24.53;23.03;;;;;;;;;;5114675;28;20823;-87
2021/08/05 01:03:25;;;;;;;24.83;23.43;;;;;;;;;;5113920;28;20445;-86
2021/08/05 01:05:57;;;;;;;23.60;22.20;;;;;;;;;;5113750;28;20502;-87
2021/08/05 01:08:26;;;;;;;24.87;23.37;;;;;;;;;;5114866;28;20860;-87
2021/08/05 01:10:56;;;;;;;23.87;22.47;;;;;;;;;;5113819;28;20441;-87
2021/08/05 01:13:29;;;;;;;22.93;21.37;;;;;;;;;;5114806;28;20521;-86
2021/08/05 01:15:57;;;;;;;23.73;22.17;;;;;;;;;;5114823;28;20434;-87
2021/08/05 01:18:29;;;;;;;24.20;22.87;;;;;;;;;;5114417;28;20982;-86
2021/08/05 01:20:56;;;;;;;23.13;21.83;;;;;;;;;;5114853;28;20452;-86
2021/08/05 01:23:29;;;;;;;23.80;22.27;;;;;;;;;;5114968;28;20440;-87
2021/08/05 01:26:01;;;;;;;24.63;22.97;;;;;;;;;;5114601;28;20865;-86
2021/08/05 01:28:30;;;;;;;22.67;21.30;;;;;;;;;;5114574;28;20451;-86
2021/08/05 01:30:58;;;;;;;22.50;21.20;;;;;;;;;;5114615;28;20436;-86
2021/08/05 01:33:27;;;;;;;24.63;23.13;;;;;;;;;;5114240;28;20418;-86
2021/08/05 01:35:55;;;;;;;23.63;22.03;;;;;;;;;;5114339;28;20418;-87
2021/08/05 01:38:22;;;;;;;24.87;23.20;;;;;;;;;;5114551;28;20471;-87
2021/08/05 01:40:51;;;;;;;24.17;22.77;;;;;;;;;;5114768;28;20437;-87
2021/08/05 01:43:19;;;;;;;22.30;21.20;;;;;;;;;;5113173;28;20448;-86
2021/08/05 01:45:49;;;;;;;24.50;22.97;;;;;;;;;;5115089;28;20564;-86
2021/08/05 01:48:16;;;;;;;23.97;22.57;;;;;;;;;;5118052;28;20438;-87
2021/08/05 01:50:45;;;;;;;22.70;21.50;;;;;;;;;;5118625;28;20416;-87
2021/08/05 01:53:14;;;;;;;22.87;21.50;;;;;;;;;;5117873;28;20892;-87
2021/08/05 01:55:42;;;;;;;25.20;23.40;;;;;;;;;;5117917;28;20908;-87
2021/08/05 01:58:09;;;;;;;22.43;21.00;;;;;;;;;;5118082;28;20475;-87
2021/08/05 02:00:37;;;;;;;23.53;22.13;;;;;;;;;;5118247;28;20928;-87
2021/08/05 02:03:06;;;;;;;25.50;24.10;;;;;;;;;;5116829;28;20431;-86
2021/08/05 02:05:36;;;;;;;22.80;21.50;;;;;;;;;;5118091;28;20442;-87
2021/08/05 02:08:05;;;;;;;24.37;22.80;;;;;;;;;;5116773;28;20429;-87
2021/08/05 02:10:34;;;;;;;24.70;23.20;;;;;;;;;;5118125;28;20515;-86
2021/08/05 02:13:03;;;;;;;23.47;22.17;;;;;;;;;;5118065;28;20433;-87
2021/08/05 02:15:33;;;;;;;22.50;21.30;;;;;;;;;;5117876;28;20436;-86
2021/08/05 02:18:00;;;;;;;23.67;22.07;;;;;;;;;;5118128;28;20477;-86
2021/08/05 02:20:29;;;;;;;24.83;23.23;;;;;;;;;;5117445;28;20919;-85
2021/08/05 02:22:57;;;;;;;23.87;22.47;;;;;;;;;;5117544;28;20774;-85
2021/08/05 02:25:25;;;;;;;25.07;23.57;;;;;;;;;;5117509;28;20456;-85
2021/08/05 02:27:53;;;;;;;25.80;23.70;;;;;;;;;;5116174;28;20445;-85
2021/08/05 02:30:20;;;;;;;24.77;23.17;;;;;;;;;;5117005;28;20424;-85
2021/08/05 02:32:49;;;;;;;25.13;23.33;;;;;;;;;;5116149;28;20788;-85
2021/08/05 02:35:17;;;;;;;24.77;23.17;;;;;;;;;;5117290;28;20432;-85
2021/08/05 02:37:46;;;;;;;25.97;24.47;;;;;;;;;;5117368;28;20550;-86
2021/08/05 02:40:14;;;;;;;25.00;23.60;;;;;;;;;;5116235;28;20475;-85
2021/08/05 02:42:41;;;;;;;25.30;23.90;;;;;;;;;;5117184;28;20460;-85
2021/08/05 02:45:09;;;;;;;26.73;24.93;;;;;;;;;;5117081;28;20403;-85
2021/08/05 02:47:37;;;;;;;25.40;23.60;;;;;;;;;;5117110;28;20415;-85
2021/08/05 02:50:06;;;;;;;25.23;23.63;;;;;;;;;;5117112;28;20780;-85
2021/08/05 02:52:33;;;;;;;24.87;23.37;;;;;;;;;;5116820;28;20514;-85
2021/08/05 02:55:03;;;;;;;25.43;23.60;;;;;;;;;;5117424;28;20440;-85
2021/08/05 02:57:31;;;;;;;25.30;23.90;;;;;;;;;;5116247;28;20450;-84
2021/08/05 02:59:58;;;;;;;25.83;24.00;;;;;;;;;;5116488;28;20958;-85
2021/08/05 03:02:26;;;;;;;26.67;24.97;;;;;;;;;;5116776;28;20460;-85
2021/08/05 03:04:53;;;;;;;25.90;24.20;;;;;;;;;;5116487;28;20418;-85
2021/08/05 03:07:21;;;;;;;26.17;24.37;;;;;;;;;;5116489;28;20410;-85
2021/08/05 03:09:48;;;;;;;25.20;23.60;;;;;;;;;;5116412;28;20411;-85
2021/08/05 03:12:17;;;;;;;24.53;23.00;;;;;;;;;;5116342;28;20447;-85
2021/08/05 03:14:44;;;;;;;25.50;23.90;;;;;;;;;;5117139;28;20753;-85
2021/08/05 03:17:12;;;;;;;27.60;25.90;;;;;;;;;;5116196;28;20481;-85
2021/08/05 03:19:39;;;;;;;30.00;27.90;;;;;;;;;;5116260;27;20480;-85
2021/08/05 03:22:07;;;;;;;26.50;25.00;;;;;;;;;;5116458;28;20410;-85
2021/08/05 03:24:34;;;;;;;29.27;27.37;;;;;;;;;;5116058;28;20440;-86
2021/08/05 03:27:02;;;;;;;28.63;26.83;;;;;;;;;;5116063;28;20403;-85
2021/08/05 03:29:31;;;;;;;27.97;26.07;;;;;;;;;;5116123;28;20453;-85
2021/08/05 03:31:59;;;;;;;28.67;26.73;;;;;;;;;;5116396;28;20433;-85
2021/08/05 03:34:26;;;;;;;26.93;25.27;;;;;;;;;;5116048;28;20426;-85
2021/08/05 03:36:54;;;;;;;27.87;25.93;;;;;;;;;;5115788;28;20433;-85
2021/08/05 03:39:21;;;;;;;28.37;26.20;;;;;;;;;;5115947;28;20473;-85
2021/08/05 03:41:48;;;;;;;26.93;25.30;;;;;;;;;;5116201;27;20439;-85
2021/08/05 03:44:16;;;;;;;29.50;27.20;;;;;;;;;;5115742;28;20437;-85
2021/08/05 03:46:45;;;;;;;27.90;26.10;;;;;;;;;;5115555;28;20450;-85
2021/08/05 03:49:12;;;;;;;28.33;26.30;;;;;;;;;;5116252;28;20415;-85
2021/08/05 03:51:40;;;;;;;26.87;25.17;;;;;;;;;;5115985;28;20427;-85
2021/08/05 03:54:07;;;;;;;27.33;25.57;;;;;;;;;;5115562;27;20810;-85
2021/08/05 03:56:35;;;;;;;26.60;24.63;;;;;;;;;;5114589;28;20949;-85
2021/08/05 03:59:02;;;;;;;28.80;27.00;;;;;;;;;;5115324;28;20524;-85
2021/08/05 04:01:30;;;;;;;28.57;26.77;;;;;;;;;;5115298;28;20422;-85
2021/08/05 04:03:58;;;;;;;26.10;24.40;;;;;;;;;;5115313;28;20444;-85
2021/08/05 04:06:26;;;;;;;29.03;27.13;;;;;;;;;;5115632;28;20411;-85
2021/08/05 04:08:53;;;;;;;28.47;26.50;;;;;;;;;;5114614;28;20406;-85
2021/08/05 04:11:20;;;;;;;28.27;26.27;;;;;;;;;;5115341;28;20443;-85
2021/08/05 04:13:48;;;;;;;27.57;25.87;;;;;;;;;;5115434;28;20433;-85
2021/08/05 04:16:15;;;;;;;26.97;25.03;;;;;;;;;;5115312;28;20411;-85
2021/08/05 04:18:43;;;;;;;29.70;27.27;;;;;;;;;;5097332;28;20489;-85
2021/08/05 04:21:12;;;;;;;29.10;27.10;;;;;;;;;;5115279;28;20468;-85
2021/08/05 04:23:39;;;;;;;27.97;25.90;;;;;;;;;;5114163;28;20417;-85
2021/08/05 04:26:07;;;;;;;28.13;26.00;;;;;;;;;;5115154;28;20460;-85
2021/08/05 04:28:34;;;;;;;30.60;28.00;;;;;;;;;;5114698;28;20437;-85
2021/08/05 04:31:01;;;;;;;30.80;28.70;;;;;;;;;;5113854;28;20404;-92
2021/08/05 04:33:29;;;;;;;29.47;27.50;;;;;;;;;;5114957;28;20425;-85
2021/08/05 04:35:56;;;;;;;29.17;27.33;;;;;;;;;;5114738;28;20415;-85
2021/08/05 04:38:25;;;;;;;28.13;26.43;;;;;;;;;;5114524;27;20460;-84
2021/08/05 04:40:53;;;;;;;28.80;26.90;;;;;;;;;;5114660;28;20423;-84
2021/08/05 04:43:20;;;;;;;28.30;26.27;;;;;;;;;;5114806;28;20433;-84
2021/08/05 04:45:48;;;;;;;27.50;25.80;;;;;;;;;;5114621;28;20481;-85
2021/08/05 04:48:15;;;;;;;25.87;24.30;;;;;;;;;;5114468;28;20421;-85
2021/08/05 04:50:43;;;;;;;26.73;25.03;;;;;;;;;;5114916;28;20436;-85
2021/08/05 04:53:16;;;;;;;28.17;26.00;;;;;;;;;;5113555;28;20424;-85
2021/08/05 04:55:45;;;;;;;26.07;24.27;;;;;;;;;;5113522;28;20404;-85
2021/08/05 04:58:12;;;;;;;26.60;24.90;;;;;;;;;;5113683;28;21040;-85
2021/08/05 05:00:41;;;;;;;26.30;24.70;;;;;;;;;;5114684;28;20439;-86
2021/08/05 05:03:09;;;;;;;26.90;25.23;;;;;;;;;;5113971;28;20480;-86
2021/08/05 05:05:37;;;;;;;26.23;24.63;;;;;;;;;;5114610;28;20760;-85
2021/08/05 05:08:14;;;;;;;27.80;26.10;;;;;;;;;;5114854;28;20451;-85
2021/08/05 05:10:41;;;;;;;28.30;26.60;;;;;;;;;;5114490;28;20415;-85
2021/08/05 05:13:10;;;;;;;27.93;26.13;;;;;;;;;;5113392;28;20424;-84
2021/08/05 05:15:38;;;;;;;28.90;26.90;;;;;;;;;;5114548;28;20433;-84
2021/08/05 05:18:05;;;;;;;28.87;27.10;;;;;;;;;;5114388;28;20461;-85
2021/08/05 05:20:33;;;;;;;27.93;26.33;;;;;;;;;;5118059;28;20444;-84
2021/08/05 05:23:01;;;;;;;27.73;26.07;;;;;;;;;;5118264;28;20433;-85
2021/08/05 05:25:29;;;;;;;29.53;27.27;;;;;;;;;;5117416;28;20438;-84
2021/08/05 05:27:56;;;;;;;29.83;27.83;;;;;;;;;;5118061;28;20444;-84
2021/08/05 05:30:25;;;;;;;28.37;26.67;;;;;;;;;;5118690;28;20441;-84
2021/08/05 05:32:53;;;;;;;28.37;26.67;;;;;;;;;;5118151;28;20439;-92
2021/08/05 05:35:21;;;;;;;29.77;27.77;;;;;;;;;;5117283;28;20471;-84
2021/08/05 05:37:49;;;;;;;32.37;30.13;;;;;;;;;;5118258;28;20763;-84
2021/08/05 05:40:17;;;;;;;29.40;27.60;;;;;;;;;;5118419;28;20848;-85
2021/08/05 05:42:44;;;;;;;30.57;28.60;;;;;;;;;;5118013;28;20415;-85
2021/08/05 05:45:13;;;;;;;29.03;27.23;;;;;;;;;;5118056;28;20412;-84
2021/08/05 05:47:42;;;;;;;31.00;29.00;;;;;;;;;;5117868;27;20921;-84
2021/08/05 05:50:10;;;;;;;31.07;29.07;;;;;;;;;;5118011;28;20445;-85
2021/08/05 05:52:37;;;;;;;31.20;29.23;;;;;;;;;;5117484;28;20914;-84
2021/08/05 05:55:05;;;;;;;31.87;29.47;;;;;;;;;;5117464;28;20424;-84
2021/08/05 05:57:33;;;;;;;30.93;28.87;;;;;;;;;;5117932;28;20468;-84
2021/08/05 06:00:00;;;;;;;31.13;28.33;;;;;;;;;;5117706;28;20492;-84
2021/08/05 06:02:27;;;;;;;29.13;27.40;;;;;;;;;;5117367;28;20418;-83
2021/08/05 06:04:56;;;;;;;30.10;28.13;;;;;;;;;;5118046;28;20425;-83
2021/08/05 06:07:24;;;;;;;29.30;27.50;;;;;;;;;;5117715;28;20433;-84
2021/08/05 06:09:51;;;;;;;30.77;28.77;;;;;;;;;;5117325;28;20454;-83
2021/08/05 06:12:18;;;;;;;27.70;26.00;;;;;;;;;;5117216;28;20403;-83
2021/08/05 06:14:46;;;;;;;29.27;27.43;;;;;;;;;;5116434;28;20453;-82
2021/08/05 06:17:14;;;;;;;27.50;25.80;;;;;;;;;;5117080;28;20442;-82
2021/08/05 06:19:41;;;;;;;28.70;26.80;;;;;;;;;;5117214;28;20466;-83
2021/08/05 06:22:10;;;;;;;28.37;26.67;;;;;;;;;;5117210;27;20548;-82
2021/08/05 06:24:38;;;;;;;28.17;26.43;;;;;;;;;;5117237;28;20479;-83
2021/08/05 06:27:06;;;;;;;29.00;27.07;;;;;;;;;;5116804;28;20972;-83
2021/08/05 06:29:34;;;;;;;29.47;27.23;;;;;;;;;;5116816;28;20433;-82
2021/08/05 06:32:01;;;;;;;28.00;26.23;;;;;;;;;;5116368;28;20500;-83
2021/08/05 06:34:29;;;;;;;28.30;26.60;;;;;;;;;;5117087;28;20415;-83
2021/08/05 06:36:56;;;;;;;27.70;26.10;;;;;;;;;;5116714;28;20882;-83
2021/08/05 06:39:25;;;;;;;27.87;26.20;;;;;;;;;;5116789;28;20483;-83
2021/08/05 06:41:52;;;;;;;29.90;28.07;;;;;;;;;;5116768;28;20926;-84
2021/08/05 06:44:19;;;;;;;28.47;26.47;;;;;;;;;;5116868;28;20435;-83
2021/08/05 06:46:47;;;;;;;28.87;26.90;;;;;;;;;;5116352;28;20457;-83
2021/08/05 06:49:14;;;;;;;28.90;27.10;;;;;;;;;;5116674;28;20437;-83
2021/08/05 06:51:42;;;;;;;28.40;26.70;;;;;;;;;;5116616;28;20411;-82
2021/08/05 06:54:09;;;;;;;28.03;26.33;;;;;;;;;;5116695;28;20437;-83
2021/08/05 06:56:38;;;;;;;26.83;25.13;;;;;;;;;;5116400;28;20446;-83
2021/08/05 06:59:05;;;;;;;29.60;27.50;;;;;;;;;;5116140;28;20459;-83
2021/08/05 07:01:33;;;;;;;28.70;26.70;;;;;;;;;;5116245;28;20404;-83
2021/08/05 07:04:01;;;;;;;28.27;26.47;;;;;;;;;;5116301;28;20425;-83
2021/08/05 07:06:29;;;;;;;29.07;27.27;;;;;;;;;;5116305;28;20444;-83
2021/08/05 07:08:56;;;;;;;28.13;26.53;;;;;;;;;;5114940;28;20975;-83
2021/08/05 07:11:24;;;;;;;29.13;27.07;;;;;;;;;;5116048;28;20406;-82
2021/08/05 07:13:52;;;;;;;29.03;27.27;;;;;;;;;;5115309;28;20420;-83
2021/08/05 07:16:20;;;;;;;28.00;26.20;;;;;;;;;;5116192;28;20469;-83
2021/08/05 07:18:47;;;;;;;29.60;27.80;;;;;;;;;;5116144;28;20488;-83
2021/08/05 07:21:15;;;;;;;28.37;26.77;;;;;;;;;;5115757;28;20412;-83
2021/08/05 07:23:42;;;;;;;28.47;26.57;;;;;;;;;;5114761;28;20415;-83
2021/08/05 07:26:10;;;;;;;28.13;26.43;;;;;;;;;;5115951;27;20455;-83
2021/08/05 07:28:39;;;;;;;28.47;26.67;;;;;;;;;;5115748;28;20796;-83
2021/08/05 07:31:08;;;;;;;27.90;26.20;;;;;;;;;;5115948;28;20490;-83
2021/08/05 07:33:35;;;;;;;27.53;25.73;;;;;;;;;;5115819;28;20413;-83
2021/08/05 07:36:03;;;;;;;27.57;25.57;;;;;;;;;;5115674;28;20797;-87
2021/08/05 07:38:30;;;;;;;26.83;25.13;;;;;;;;;;5115528;28;20417;-83
2021/08/05 07:40:57;;;;;;;27.20;25.60;;;;;;;;;;5115665;28;20816;-83
2021/08/05 07:43:25;;;;;;;26.83;25.27;;;;;;;;;;5115681;28;20433;-84
2021/08/05 07:45:52;;;;;;;27.83;26.00;;;;;;;;;;5115222;28;20474;-83
2021/08/05 07:48:21;;;;;;;27.67;26.07;;;;;;;;;;5115333;28;20416;-83
2021/08/05 07:50:48;;;;;;;28.57;26.67;;;;;;;;;;5115554;28;20430;-83
2021/08/05 07:53:16;;;;;;;26.50;24.70;;;;;;;;;;5115222;28;20919;-83
2021/08/05 07:55:43;;;;;;;27.90;26.20;;;;;;;;;;5115285;28;20433;-87
2021/08/05 07:58:11;;;;;;;26.90;25.00;;;;;;;;;;5115388;28;20883;-83
2021/08/05 08:00:38;;;;;;;27.50;25.57;;;;;;;;;;5114776;27;20504;-83
2021/08/05 08:03:06;;;;;;;27.60;25.57;;;;;;;;;;5115317;28;20427;-83
2021/08/05 08:05:35;;;;;;;25.27;23.93;;;;;;;;;;5115245;28;20487;-83
2021/08/05 08:08:02;;;;;;;26.50;24.77;;;;;;;;;;5115635;28;20458;-83
2021/08/05 08:10:29;;;;;;;25.17;23.73;;;;;;;;;;5115265;28;20423;-83
2021/08/05 08:12:57;;;;;;;25.40;23.90;;;;;;;;;;5115621;28;20451;-83
2021/08/05 08:15:25;;;;;;;25.67;24.20;;;;;;;;;;5113995;28;20502;-85
2021/08/05 08:17:52;;;;;;;24.13;22.73;;;;;;;;;;5115025;28;20489;-83
2021/08/05 08:20:20;;;;;;;24.70;23.30;;;;;;;;;;5115528;28;20500;-85
2021/08/05 08:22:49;;;;;;;25.90;24.30;;;;;;;;;;5115268;28;20424;-86
2021/08/05 08:25:16;;;;;;;26.23;24.80;;;;;;;;;;5114946;28;20471;-85
2021/08/05 08:27:44;;;;;;;24.70;23.17;;;;;;;;;;5115435;28;20822;-84
2021/08/05 08:30:13;;;;;;;26.33;24.43;;;;;;;;;;5114792;28;20434;-84
2021/08/05 08:32:41;;;;;;;24.83;23.30;;;;;;;;;;5115079;28;20408;-85
2021/08/05 08:35:09;;;;;;;24.63;23.17;;;;;;;;;;5114898;28;20446;-85
2021/08/05 08:37:36;;;;;;;24.70;23.40;;;;;;;;;;5114959;28;20411;-87
2021/08/05 08:40:06;;;;;;;25.03;23.67;;;;;;;;;;5114748;28;20860;-85
2021/08/05 08:42:34;;;;;;;25.10;23.70;;;;;;;;;;5114519;28;20885;-81
2021/08/05 08:45:01;;;;;;;25.57;24.07;;;;;;;;;;5114521;28;20419;-84
2021/08/05 08:47:29;;;;;;;25.30;23.70;;;;;;;;;;5114343;28;20405;-84
2021/08/05 08:49:57;;;;;;;26.23;24.63;;;;;;;;;;5114249;28;20890;-83
2021/08/05 08:52:26;;;;;;;24.70;23.30;;;;;;;;;;5114923;28;20443;-87
2021/08/05 08:54:53;;;;;;;26.50;24.90;;;;;;;;;;5114780;28;20474;-86
2021/08/05 08:57:25;;;;;;;25.97;24.47;;;;;;;;;;5114756;28;20459;-86
2021/08/05 08:59:52;;;;;;;26.20;24.70;;;;;;;;;;5114319;28;20487;-87
2021/08/05 09:02:20;;;;;;;25.50;23.90;;;;;;;;;;5114270;28;20441;-83
2021/08/05 09:04:47;;;;;;;24.17;22.87;;;;;;;;;;5114990;28;20446;-81
2021/08/05 09:07:14;;;;;;;24.00;22.77;;;;;;;;;;5113925;28;20451;-82
2021/08/05 09:09:42;;;;;;;23.60;22.20;;;;;;;;;;5113968;28;20502;-81
2021/08/05 09:12:15;;;;;;;24.27;22.90;;;;;;;;;;5114205;28;20446;-81
2021/08/05 09:14:45;;;;;;;25.07;23.63;;;;;;;;;;5113900;28;20449;-81
2021/08/05 09:17:20;;;;;;;24.40;23.00;;;;;;;;;;5113873;28;20420;-81
2021/08/05 09:19:47;;;;;;;23.90;22.60;;;;;;;;;;5114018;28;20473;-81
2021/08/05 09:22:29;;;;;;;25.40;24.00;;;;;;;;;;5113933;28;20441;-81
2021/08/05 09:24:57;;;;;;;24.37;22.87;;;;;;;;;;5113912;28;20471;-81
2021/08/05 09:27:31;;;;;;;24.63;23.33;;;;;;;;;;5114073;28;20450;-81
2021/08/05 09:30:00;;;;;;;23.10;21.90;;;;;;;;;;5113915;28;20449;-81
2021/08/05 09:32:28;;;;;;;24.03;22.63;;;;;;;;;;5113712;28;20409;-81
2021/08/05 09:35:05;;;;;;;22.97;21.67;;;;;;;;;;5113703;28;20443;-81
2021/08/05 09:37:36;;;;;;;23.37;22.03;;;;;;;;;;5113816;28;20431;-81
2021/08/05 09:40:10;;;;;;;23.90;22.60;;;;;;;;;;5113817;28;20462;-81
2021/08/05 09:42:37;;;;;;;23.40;21.93;;;;;;;;;;5113676;28;20432;-81
2021/08/05 09:45:08;;;;;;;23.97;22.47;;;;;;;;;;5113356;28;20473;-81
2021/08/05 09:47:42;;;;;;;21.33;20.23;;;;;;;;;;5113611;28;20443;-85
2021/08/05 09:50:11;;;;;;;21.87;20.77;;;;;;;;;;5113960;28;20413;-80
2021/08/05 09:52:39;;;;;;;22.03;20.83;;;;;;;;;;5113819;28;20444;-80
2021/08/05 09:55:07;;;;;;;23.27;21.77;;;;;;;;;;5113903;28;20406;-84
2021/08/05 09:57:36;;;;;;;22.03;20.93;;;;;;;;;;5113930;28;20765;-83
2021/08/05 10:00:05;;;;;;;21.93;20.73;;;;;;;;;;5113902;28;20569;-84
2021/08/05 10:02:42;;;;;;;23.10;21.80;;;;;;;;;;5113669;28;20462;-83
2021/08/05 10:05:13;;;;;;;21.57;20.33;;;;;;;;;;5113959;28;20447;-83
2021/08/05 10:07:44;;;;;;;22.53;21.13;;;;;;;;;;5115815;28;20497;-83
2021/08/05 10:10:12;;;;;;;22.17;20.97;;;;;;;;;;5117301;28;20413;-83
2021/08/05 10:12:40;;;;;;;20.87;19.77;;;;;;;;;;5117285;28;20431;-83
2021/08/05 10:15:11;;;;;;;21.37;20.37;;;;;;;;;;5116503;28;20552;-83
2021/08/05 10:17:39;;;;;;;20.00;18.90;;;;;;;;;;5117344;28;20453;-84
2021/08/05 10:20:11;;;;;;;20.77;19.77;;;;;;;;;;5117285;28;20486;-83
2021/08/05 10:22:38;;;;;;;21.70;20.60;;;;;;;;;;5117086;28;20409;-83
2021/08/05 10:25:07;;;;;;;21.20;20.00;;;;;;;;;;5116988;28;20470;-83
2021/08/05 10:27:35;;;;;;;20.40;19.30;;;;;;;;;;5116881;28;20445;-83
2021/08/05 10:30:03;;;;;;;20.73;19.63;;;;;;;;;;5116662;28;20449;-83
2021/08/05 10:32:30;;;;;;;20.90;19.80;;;;;;;;;;5116723;28;20419;-83
2021/08/05 10:34:58;;;;;;;21.17;20.07;;;;;;;;;;5117123;28;20423;-83
2021/08/05 10:37:27;;;;;;;20.53;19.43;;;;;;;;;;5117074;27;20414;-83
2021/08/05 10:39:54;;;;;;;21.00;19.70;;;;;;;;;;5116763;28;20995;-87
2021/08/05 10:42:22;;;;;;;21.30;20.20;;;;;;;;;;5116671;28;21022;-83
2021/08/05 10:44:50;;;;;;;21.40;20.40;;;;;;;;;;5116522;28;20896;-82
2021/08/05 10:47:20;;;;;;;21.47;20.17;;;;;;;;;;5116463;28;20493;-83
2021/08/05 10:49:48;;;;;;;20.57;19.47;;;;;;;;;;5116559;28;20426;-83
2021/08/05 10:52:34;;;;;;;22.43;21.13;;;;;;;;;;5117058;28;20785;-83
2021/08/05 10:55:04;;;;;;;21.90;20.80;;;;;;;;;;5116432;28;20447;-83
2021/08/05 10:57:32;;;;;;;21.47;20.37;;;;;;;;;;5115247;27;20436;-83
2021/08/05 11:00:00;;;;;;;21.13;20.10;;;;;;;;;;5116245;28;20475;-84
2021/08/05 11:02:44;;;;;;;20.97;19.97;;;;;;;;;;5116299;28;20437;-83
2021/08/05 11:05:12;;;;;;;21.67;20.57;;;;;;;;;;5116426;28;20428;-83
2021/08/05 11:07:39;;;;;;;20.33;19.23;;;;;;;;;;5116461;28;20413;-83
2021/08/05 11:10:25;;;;;;;20.73;19.63;;;;;;;;;;5116054;27;20414;-83
2021/08/05 11:12:54;;;;;;;21.20;20.10;;;;;;;;;;5116271;28;20931;-83
2021/08/05 11:15:40;;;;;;;20.70;19.60;;;;;;;;;;5116101;28;20461;-83
2021/08/05 11:18:17;;;;;;;21.00;19.90;;;;;;;;;;5115946;28;20405;-83
2021/08/05 11:20:46;;;;;;;20.90;19.80;;;;;;;;;;5116045;28;20489;-83
2021/08/05 11:23:29;;;;;;;21.77;20.47;;;;;;;;;;5116230;28;20428;-83
2021/08/05 11:26:16;;;;;;;20.67;19.57;;;;;;;;;;5113963;28;20959;-83
2021/08/05 11:28:47;;;;;;;21.43;20.20;;;;;;;;;;5117007;28;20458;-84
2021/08/05 11:31:27;;;;;;;21.17;20.07;;;;;;;;;;5116251;28;20452;-85
2021/08/05 11:33:55;;;;;;;22.03;20.73;;;;;;;;;;5115943;27;20538;-84
2021/08/05 11:36:24;;;;;;;21.57;20.27;;;;;;;;;;5116202;28;20407;-85
2021/08/05 11:38:58;;;;;;;22.13;20.93;;;;;;;;;;5116416;28;20444;-83
2021/08/05 11:41:55;;;;;;;21.53;20.43;;;;;;;;;;5115794;28;20472;-90
2021/08/05 11:44:31;;;;;;;22.17;20.97;;;;;;;;;;5053504;28;20442;-82
2021/08/05 11:47:15;;;;;;;21.87;20.73;;;;;;;;;;5053370;28;20481;-84
2021/08/05 11:49:43;;;;;;;21.77;20.50;;;;;;;;;;5053634;28;20528;-82
2021/08/05 11:52:11;;;;;;;22.10;20.93;;;;;;;;;;5035638;28;20821;-82
2021/08/05 11:54:39;;;;;;;21.70;20.60;;;;;;;;;;5052414;28;20500;-81
2021/08/05 11:57:08;;;;;;;22.20;21.00;;;;;;;;;;5035954;28;20424;-81
2021/08/05 11:59:38;;;;;;;21.70;20.50;;;;;;;;;;5052186;28;20800;-81
2021/08/05 12:02:09;;;;;;;22.27;20.97;;;;;;;;;;5051918;28;20891;-81
2021/08/05 12:04:37;;;;;;;21.20;20.10;;;;;;;;;;5052492;28;20455;-81
2021/08/05 12:07:17;;;;;;;21.90;20.70;;;;;;;;;;5035558;28;20432;-81
2021/08/05 12:09:45;;;;;;;21.67;20.37;;;;;;;;;;5051932;28;20420;-82
2021/08/05 12:12:12;;;;;;;22.70;21.20;;;;;;;;;;5052106;28;20447;-81
2021/08/05 12:14:47;;;;;;;22.63;21.43;;;;;;;;;;5051865;28;20802;-81
2021/08/05 12:17:14;;;;;;;22.20;21.00;;;;;;;;;;5052203;28;20441;-81
2021/08/05 12:19:48;;;;;;;22.70;21.40;;;;;;;;;;5113320;28;20466;-81
2021/08/05 12:22:16;;;;;;;22.33;21.03;;;;;;;;;;5114345;28;20908;-81
2021/08/05 12:24:46;;;;;;;22.27;21.17;;;;;;;;;;5114701;28;20446;-81
2021/08/05 12:27:19;;;;;;;22.80;21.60;;;;;;;;;;5114709;28;20813;-81
2021/08/05 12:30:03;;;;;;;22.97;21.67;;;;;;;;;;5113764;28;20410;-81
2021/08/05 12:32:31;;;;;;;21.73;20.53;;;;;;;;;;5113265;28;20436;-82
2021/08/05 12:34:58;;;;;;;22.33;21.23;;;;;;;;;;5114668;28;20484;-81
2021/08/05 12:37:26;;;;;;;22.90;21.60;;;;;;;;;;5114497;28;20468;-82
2021/08/05 12:39:53;;;;;;;22.93;21.73;;;;;;;;;;5114100;28;20439;-81
2021/08/05 12:42:21;;;;;;;22.13;20.97;;;;;;;;;;5114461;28;20436;-81
2021/08/05 12:44:48;;;;;;;23.03;21.83;;;;;;;;;;5112747;28;20910;-82
2021/08/05 12:47:17;;;;;;;23.40;21.80;;;;;;;;;;5114188;28;20457;-81
2021/08/05 12:49:46;;;;;;;23.60;22.40;;;;;;;;;;5114098;28;20409;-81
2021/08/05 12:52:16;;;;;;;22.40;21.20;;;;;;;;;;5114369;28;20448;-81
2021/08/05 12:54:44;;;;;;;22.43;21.13;;;;;;;;;;5114128;28;20411;-82
2021/08/05 12:57:12;;;;;;;22.17;20.97;;;;;;;;;;5114422;28;20874;-82
2021/08/05 12:59:43;;;;;;;21.77;20.57;;;;;;;;;;5114320;28;20504;-82
2021/08/05 13:02:11;;;;;;;21.97;20.87;;;;;;;;;;5113891;28;20943;-81
2021/08/05 13:04:40;;;;;;;22.00;20.90;;;;;;;;;;5114040;28;20909;-81
2021/08/05 13:07:10;;;;;;;21.53;20.33;;;;;;;;;;5114049;28;20447;-81
2021/08/05 13:09:50;;;;;;;21.30;20.20;;;;;;;;;;5113870;28;20444;-82
2021/08/05 13:12:22;;;;;;;22.03;20.73;;;;;;;;;;5113781;28;20840;-82
2021/08/05 13:14:49;;;;;;;22.70;21.40;;;;;;;;;;5114198;28;20438;-81
2021/08/05 13:17:18;;;;;;;22.30;21.20;;;;;;;;;;5113842;28;20867;-80
2021/08/05 13:19:53;;;;;;;22.50;21.30;;;;;;;;;;5113849;28;20431;-81
2021/08/05 13:22:34;;;;;;;20.30;19.30;;;;;;;;;;5113740;28;20478;-81
2021/08/05 13:25:01;;;;;;;21.40;20.20;;;;;;;;;;5114325;28;20463;-81
2021/08/05 13:27:32;;;;;;;21.47;20.37;;;;;;;;;;5113986;28;20436;-81
2021/08/05 13:30:00;;;;;;;22.20;20.90;;;;;;;;;;5113707;28;20442;-81
2021/08/05 13:32:27;;;;;;;22.27;21.10;;;;;;;;;;5114082;28;20410;-82
2021/08/05 13:35:01;;;;;;;21.93;20.73;;;;;;;;;;5114152;28;20443;-82
2021/08/05 13:37:29;;;;;;;21.67;20.53;;;;;;;;;;5113899;28;20414;-82
2021/08/05 13:39:57;;;;;;;21.60;20.40;;;;;;;;;;5114255;28;20458;-82
2021/08/05 13:42:25;;;;;;;21.10;20.00;;;;;;;;;;5117754;28;20805;-82
2021/08/05 13:44:53;;;;;;;21.33;20.23;;;;;;;;;;5117840;28;20410;-81
2021/08/05 13:47:20;;;;;;;20.77;19.67;;;;;;;;;;5117615;28;20454;-81
2021/08/05 13:49:48;;;;;;;21.23;20.13;;;;;;;;;;5117962;28;20440;-85
2021/08/05 13:52:17;;;;;;;20.87;19.80;;;;;;;;;;5118232;28;20447;-85
2021/08/05 13:54:44;;;;;;;21.80;20.60;;;;;;;;;;5118232;28;20764;-85
2021/08/05 13:57:12;;;;;;;21.63;20.53;;;;;;;;;;5118107;28;20443;-81
2021/08/05 13:59:40;;;;;;;20.93;19.73;;;;;;;;;;5117557;28;20477;-81
2021/08/05 14:02:07;;;;;;;21.80;20.70;;;;;;;;;;5117303;28;20491;-81
2021/08/05 14:04:35;;;;;;;21.00;19.90;;;;;;;;;;5117547;28;20439;-81
2021/08/05 14:07:02;;;;;;;21.10;20.00;;;;;;;;;;5117610;28;20773;-82
2021/08/05 14:09:31;;;;;;;20.73;19.63;;;;;;;;;;5117229;28;20436;-81
2021/08/05 14:11:58;;;;;;;20.63;19.50;;;;;;;;;;5117155;28;20785;-81
2021/08/05 14:14:26;;;;;;;21.17;20.07;;;;;;;;;;5117340;28;20407;-81
2021/08/05 14:16:53;;;;;;;20.70;19.60;;;;;;;;;;5115920;28;20447;-81
2021/08/05 14:19:21;;;;;;;20.60;19.50;;;;;;;;;;5117323;28;20435;-80
2021/08/05 14:21:49;;;;;;;22.00;20.80;;;;;;;;;;5116734;28;20476;-81
2021/08/05 14:24:19;;;;;;;21.30;20.20;;;;;;;;;;5115392;28;20858;-80
2021/08/05 14:26:49;;;;;;;22.00;20.90;;;;;;;;;;5117248;28;20439;-81